Time;durP1;ratioP1;P1;durP2;ratioP2;P2;SDS_P1;SDS_P2;PMS_P1;PMS_P2;Temp;Humidity;BMP_temperature;BMP_pressure;BME280_temperature;BME280_humidity;BME280_pressure;Samples;Min_cycle;Max_cycle;Signal;HPM_P1;HPM_P2
2024/04/01 00:01:22;;;;;;;3.80;3.45;;;;;;;;;;5006628;28;58847;-76
2024/04/01 00:03:47;;;;;;;4.20;3.80;;;;;;;;;;4992622;28;58510;-77
2024/04/01 00:06:12;;;;;;;4.53;3.92;;;;;;;;;;4998151;28;59237;-77
2024/04/01 00:08:37;;;;;;;4.13;3.37;;;;;;;;;;5008082;28;59794;-77
2024/04/01 00:11:02;;;;;;;4.40;4.00;;;;;;;;;;5006556;28;58434;-77
2024/04/01 00:13:28;;;;;;;3.97;3.60;;;;;;;;;;5008058;28;59327;-76
2024/04/01 00:15:53;;;;;;;4.40;4.00;;;;;;;;;;5006446;28;58767;-77
2024/04/01 00:18:18;;;;;;;3.65;3.33;;;;;;;;;;5007392;28;58415;-77
2024/04/01 00:20:54;;;;;;;4.57;4.18;;;;;;;;;;5007852;28;58720;-77
2024/04/01 00:23:19;;;;;;;4.45;3.90;;;;;;;;;;5006895;28;58469;-77
2024/04/01 00:25:44;;;;;;;4.47;3.97;;;;;;;;;;5007881;28;58462;-76
2024/04/01 00:28:09;;;;;;;4.68;4.10;;;;;;;;;;5006816;27;58791;-76
2024/04/01 00:30:34;;;;;;;4.28;3.92;;;;;;;;;;5005786;28;58546;-76
2024/04/01 00:33:00;;;;;;;4.00;3.58;;;;;;;;;;5006288;28;60485;-76
2024/04/01 00:35:25;;;;;;;4.57;4.13;;;;;;;;;;5002823;28;58645;-77
2024/04/01 00:37:50;;;;;;;4.60;4.20;;;;;;;;;;5006853;28;58386;-77
2024/04/01 00:40:15;;;;;;;5.03;4.53;;;;;;;;;;5009267;28;61154;-77
2024/04/01 00:42:40;;;;;;;4.43;3.40;;;;;;;;;;5008603;28;58531;-77
2024/04/01 00:45:08;;;;;;;3.80;3.50;;;;;;;;;;5009260;28;58560;-77
2024/04/01 00:47:33;;;;;;;4.50;4.10;;;;;;;;;;5006724;28;59073;-77
2024/04/01 00:49:58;;;;;;;4.72;3.78;;;;;;;;;;5010298;28;58430;-77
2024/04/01 00:52:24;;;;;;;6.07;3.95;;;;;;;;;;5007903;28;59439;-77
2024/04/01 00:54:50;;;;;;;5.13;4.50;;;;;;;;;;5009186;28;58498;-76
2024/04/01 00:57:15;;;;;;;3.53;3.23;;;;;;;;;;5010347;28;58400;-76
2024/04/01 00:59:40;;;;;;;3.97;3.58;;;;;;;;;;5010529;27;58461;-76
2024/04/01 01:02:06;;;;;;;3.50;3.20;;;;;;;;;;5010431;28;58714;-76
2024/04/01 01:04:31;;;;;;;4.45;3.20;;;;;;;;;;5011619;28;58798;-76
2024/04/01 01:06:57;;;;;;;4.00;3.57;;;;;;;;;;5010554;28;59069;-76
2024/04/01 01:09:22;;;;;;;4.30;3.88;;;;;;;;;;5017279;27;58335;-76
2024/04/01 01:11:47;;;;;;;3.57;3.00;;;;;;;;;;5010956;28;60245;-76
2024/04/01 01:14:12;;;;;;;4.30;3.90;;;;;;;;;;5009060;28;58870;-76
2024/04/01 01:16:38;;;;;;;3.85;3.47;;;;;;;;;;5010631;28;58407;-76
2024/04/01 01:19:04;;;;;;;3.80;3.47;;;;;;;;;;5007618;28;58237;-76
2024/04/01 01:21:30;;;;;;;4.22;3.85;;;;;;;;;;5008743;28;58387;-76
2024/04/01 01:23:55;;;;;;;3.93;3.53;;;;;;;;;;5008257;28;58327;-76
2024/04/01 01:26:20;;;;;;;6.30;3.63;;;;;;;;;;5007265;28;59021;-76
2024/04/01 01:28:47;;;;;;;5.50;4.30;;;;;;;;;;5008541;28;58268;-76
2024/04/01 01:31:12;;;;;;;3.88;3.30;;;;;;;;;;5007824;28;60282;-76
2024/04/01 01:33:37;;;;;;;3.67;3.30;;;;;;;;;;5008139;28;59745;-76
2024/04/01 01:36:03;;;;;;;5.10;4.07;;;;;;;;;;5009491;28;58382;-76
2024/04/01 01:38:28;;;;;;;3.97;3.60;;;;;;;;;;5006841;28;58533;-76
2024/04/01 01:40:53;;;;;;;3.00;2.80;;;;;;;;;;5009984;28;58798;-76
2024/04/01 01:43:19;;;;;;;4.87;3.67;;;;;;;;;;5004823;28;59178;-76
2024/04/01 01:45:44;;;;;;;4.57;3.60;;;;;;;;;;5008404;28;59731;-76
2024/04/01 01:48:09;;;;;;;4.60;3.73;;;;;;;;;;5008945;28;58116;-76
2024/04/01 01:50:34;;;;;;;4.07;3.63;;;;;;;;;;5005989;28;59419;-76
2024/04/01 01:52:59;;;;;;;4.73;3.50;;;;;;;;;;5007209;28;58459;-76
2024/04/01 01:55:25;;;;;;;4.57;3.83;;;;;;;;;;4989489;28;58399;-76
2024/04/01 01:57:50;;;;;;;4.03;3.72;;;;;;;;;;5003796;28;59350;-76
2024/04/01 02:00:15;;;;;;;3.88;3.35;;;;;;;;;;5007021;28;59372;-76
2024/04/01 02:02:41;;;;;;;4.18;3.40;;;;;;;;;;5008617;28;58374;-76
2024/04/01 02:05:06;;;;;;;4.00;3.30;;;;;;;;;;5007941;28;58702;-76
2024/04/01 02:07:32;;;;;;;3.60;3.20;;;;;;;;;;5007621;28;58408;-76
2024/04/01 02:09:57;;;;;;;3.33;3.03;;;;;;;;;;5007051;28;58533;-76
2024/04/01 02:12:22;;;;;;;4.47;2.88;;;;;;;;;;5008621;28;58530;-76
2024/04/01 02:14:47;;;;;;;5.43;3.73;;;;;;;;;;5008115;28;58468;-77
2024/04/01 02:17:13;;;;;;;4.40;3.25;;;;;;;;;;5010175;28;58419;-79
2024/04/01 02:19:41;;;;;;;3.97;3.57;;;;;;;;;;5006962;28;58762;-76
2024/04/01 02:22:12;;;;;;;;;;;;;;;;;;5007862;28;58406;-76
2024/04/01 02:24:37;;;;;;;3.90;3.13;;;;;;;;;;5009107;28;59406;-76
2024/04/01 02:27:02;;;;;;;3.63;3.30;;;;;;;;;;5008518;28;59918;-77
2024/04/01 02:29:27;;;;;;;3.33;3.03;;;;;;;;;;5007752;28;59297;-76
2024/04/01 02:31:52;;;;;;;5.03;3.55;;;;;;;;;;5007078;28;58868;-77
2024/04/01 02:34:17;;;;;;;3.63;3.25;;;;;;;;;;5007651;28;58436;-77
2024/04/01 02:36:43;;;;;;;2.92;2.72;;;;;;;;;;4990720;28;59264;-77
2024/04/01 02:39:16;;;;;;;3.57;2.90;;;;;;;;;;4997185;28;58701;-76
2024/04/01 02:41:41;;;;;;;3.60;3.30;;;;;;;;;;5008162;27;57976;-76
2024/04/01 02:44:06;;;;;;;4.13;2.97;;;;;;;;;;5008706;28;59329;-76
2024/04/01 02:46:31;;;;;;;3.00;2.70;;;;;;;;;;5007282;28;58881;-76
2024/04/01 02:48:57;;;;;;;3.25;2.50;;;;;;;;;;5009601;28;58445;-76
2024/04/01 02:51:22;;;;;;;3.40;3.10;;;;;;;;;;5005557;28;58449;-76
2024/04/01 02:53:48;;;;;;;2.90;2.53;;;;;;;;;;5006673;28;58498;-77
2024/04/01 02:56:13;;;;;;;3.00;2.77;;;;;;;;;;5006704;28;59687;-76
2024/04/01 02:58:39;;;;;;;3.25;2.80;;;;;;;;;;5007574;28;58948;-77
2024/04/01 03:01:07;;;;;;;3.00;2.70;;;;;;;;;;5005974;28;58467;-76
2024/04/01 03:03:33;;;;;;;3.88;2.58;;;;;;;;;;5006446;28;58605;-76
2024/04/01 03:05:58;;;;;;;3.90;2.80;;;;;;;;;;5006755;28;58590;-76
2024/04/01 03:08:23;;;;;;;2.83;2.47;;;;;;;;;;5007294;28;58429;-76
2024/04/01 03:10:48;;;;;;;2.83;2.50;;;;;;;;;;5009197;28;58550;-77
2024/04/01 03:13:13;;;;;;;3.00;2.70;;;;;;;;;;5007549;28;57896;-76
2024/04/01 03:15:38;;;;;;;4.27;3.30;;;;;;;;;;5007937;28;58518;-77
2024/04/01 03:18:04;;;;;;;3.63;3.17;;;;;;;;;;5006413;28;58321;-76
2024/04/01 03:20:29;;;;;;;3.23;2.53;;;;;;;;;;5003755;28;58444;-76
2024/04/01 03:22:54;;;;;;;4.25;2.60;;;;;;;;;;5008926;28;58411;-76
2024/04/01 03:25:19;;;;;;;2.80;2.53;;;;;;;;;;5007230;28;60879;-76
2024/04/01 03:27:44;;;;;;;3.00;2.80;;;;;;;;;;5006351;28;58001;-77
2024/04/01 03:30:09;;;;;;;3.10;2.77;;;;;;;;;;5006224;28;59218;-76
2024/04/01 03:32:35;;;;;;;2.93;2.60;;;;;;;;;;5006946;28;58565;-77
2024/04/01 03:35:00;;;;;;;3.33;2.78;;;;;;;;;;5006845;28;59208;-77
2024/04/01 03:37:26;;;;;;;5.17;2.40;;;;;;;;;;5004100;28;62927;-77
2024/04/01 03:39:51;;;;;;;2.83;2.63;;;;;;;;;;5007005;28;58674;-77
2024/04/01 03:42:16;;;;;;;2.43;2.23;;;;;;;;;;5006511;28;59417;-78
2024/04/01 03:44:42;;;;;;;4.05;2.30;;;;;;;;;;5006307;28;58746;-77
2024/04/01 03:47:07;;;;;;;4.00;2.88;;;;;;;;;;5006325;28;58474;-76
2024/04/01 03:49:32;;;;;;;2.30;2.03;;;;;;;;;;5006756;28;60261;-76
2024/04/01 03:51:58;;;;;;;2.90;2.60;;;;;;;;;;5005713;28;58367;-77
2024/04/01 03:54:23;;;;;;;2.90;2.42;;;;;;;;;;5007678;28;58350;-77
2024/04/01 03:56:51;;;;;;;2.23;2.03;;;;;;;;;;5004595;28;58403;-78
2024/04/01 03:59:18;;;;;;;3.88;2.30;;;;;;;;;;5006278;28;58205;-75
2024/04/01 04:01:45;;;;;;;2.50;2.30;;;;;;;;;;5006275;28;59407;-77
2024/04/01 04:04:11;;;;;;;1.90;1.77;;;;;;;;;;5006922;28;58500;-77
2024/04/01 04:06:36;;;;;;;3.00;2.35;;;;;;;;;;5006171;28;58913;-78
2024/04/01 04:09:02;;;;;;;2.90;2.33;;;;;;;;;;5005345;28;59523;-77
2024/04/01 04:11:27;;;;;;;2.67;2.42;;;;;;;;;;5020335;27;58971;-76
2024/04/01 04:13:52;;;;;;;2.97;2.10;;;;;;;;;;5006861;28;58404;-77
2024/04/01 04:16:17;;;;;;;2.00;1.90;;;;;;;;;;5005658;28;58471;-77
2024/04/01 04:18:44;;;;;;;2.72;2.53;;;;;;;;;;5005320;28;58402;-76
2024/04/01 04:21:09;;;;;;;2.03;1.90;;;;;;;;;;5005727;28;59530;-77
2024/04/01 04:23:34;;;;;;;2.10;1.90;;;;;;;;;;5004931;28;58383;-77
2024/04/01 04:26:00;;;;;;;2.53;2.33;;;;;;;;;;5007775;28;58481;-77
2024/04/01 04:28:25;;;;;;;2.13;2.03;;;;;;;;;;5021772;28;60258;-76
2024/04/01 04:30:50;;;;;;;1.98;1.88;;;;;;;;;;5006016;28;58897;-75
2024/04/01 04:33:15;;;;;;;4.20;2.30;;;;;;;;;;5004599;27;58497;-76
2024/04/01 04:35:40;;;;;;;2.90;2.30;;;;;;;;;;5006824;28;58825;-77
2024/04/01 04:38:05;;;;;;;2.58;2.38;;;;;;;;;;5006422;28;58493;-77
2024/04/01 04:40:32;;;;;;;2.50;2.30;;;;;;;;;;5006964;28;59422;-77
2024/04/01 04:42:57;;;;;;;2.42;2.17;;;;;;;;;;5004311;28;59913;-77
2024/04/01 04:45:22;;;;;;;3.13;2.83;;;;;;;;;;5008243;28;58627;-77
2024/04/01 04:47:48;;;;;;;3.13;2.33;;;;;;;;;;5006715;28;58679;-77
2024/04/01 04:50:13;;;;;;;2.15;1.95;;;;;;;;;;5005051;28;58463;-77
2024/04/01 04:52:38;;;;;;;5.10;3.00;;;;;;;;;;5005419;28;58330;-77
2024/04/01 04:55:05;;;;;;;2.50;2.30;;;;;;;;;;5007299;28;58416;-77
2024/04/01 04:57:30;;;;;;;2.65;2.45;;;;;;;;;;5005851;28;59069;-77
2024/04/01 04:59:55;;;;;;;2.72;2.53;;;;;;;;;;5006387;28;58419;-78
2024/04/01 05:02:20;;;;;;;2.17;1.97;;;;;;;;;;5008373;28;57957;-77
2024/04/01 05:04:46;;;;;;;2.15;1.95;;;;;;;;;;5005073;28;58592;-77
2024/04/01 05:07:13;;;;;;;2.65;2.45;;;;;;;;;;5006693;28;58795;-77
2024/04/01 05:09:38;;;;;;;2.40;2.20;;;;;;;;;;5004575;28;59010;-77
2024/04/01 05:12:03;;;;;;;2.03;1.93;;;;;;;;;;5005500;28;58559;-77
2024/04/01 05:14:30;;;;;;;3.58;2.63;;;;;;;;;;5004775;28;59720;-77
2024/04/01 05:16:55;;;;;;;2.40;2.20;;;;;;;;;;5004827;28;58883;-77
2024/04/01 05:19:21;;;;;;;2.95;2.38;;;;;;;;;;5004662;28;58702;-77
2024/04/01 05:21:46;;;;;;;2.22;2.00;;;;;;;;;;5005116;28;59116;-77
2024/04/01 05:24:11;;;;;;;1.90;1.80;;;;;;;;;;5005572;28;58366;-77
2024/04/01 05:26:36;;;;;;;2.00;1.90;;;;;;;;;;5010497;28;59198;-77
2024/04/01 05:29:01;;;;;;;3.00;2.80;;;;;;;;;;5007624;28;59111;-77
2024/04/01 05:31:27;;;;;;;2.08;1.80;;;;;;;;;;5009570;28;58415;-77
2024/04/01 05:33:52;;;;;;;1.73;1.63;;;;;;;;;;5009589;28;58502;-78
2024/04/01 05:36:18;;;;;;;2.28;2.08;;;;;;;;;;5008191;28;58357;-77
2024/04/01 05:38:43;;;;;;;2.20;2.10;;;;;;;;;;5008400;28;58348;-77
2024/04/01 05:41:08;;;;;;;2.17;1.98;;;;;;;;;;5008205;28;59211;-77
2024/04/01 05:43:33;;;;;;;2.53;2.10;;;;;;;;;;5011141;28;58454;-76
2024/04/01 05:45:59;;;;;;;3.88;2.58;;;;;;;;;;5007734;28;59431;-76
2024/04/01 05:48:24;;;;;;;2.55;2.00;;;;;;;;;;5008287;28;59513;-77
2024/04/01 05:50:50;;;;;;;2.08;1.88;;;;;;;;;;5007022;28;58632;-77
2024/04/01 05:53:15;;;;;;;2.50;2.30;;;;;;;;;;5006402;28;58552;-75
2024/04/01 05:55:40;;;;;;;5.37;2.27;;;;;;;;;;5007905;28;58577;-77
2024/04/01 05:58:06;;;;;;;2.10;2.00;;;;;;;;;;5010150;28;58445;-77
2024/04/01 06:00:31;;;;;;;2.30;2.10;;;;;;;;;;5006960;28;59531;-76
2024/04/01 06:02:57;;;;;;;2.65;2.17;;;;;;;;;;5007644;28;58629;-77
2024/04/01 06:05:22;;;;;;;2.23;2.03;;;;;;;;;;5008140;28;59539;-77
2024/04/01 06:07:47;;;;;;;2.37;2.00;;;;;;;;;;5008892;28;58857;-77
2024/04/01 06:10:12;;;;;;;2.55;2.33;;;;;;;;;;5005494;28;57926;-77
2024/04/01 06:12:37;;;;;;;3.00;2.50;;;;;;;;;;5007589;28;58538;-77
2024/04/01 06:15:03;;;;;;;2.22;1.95;;;;;;;;;;5007711;28;58486;-76
2024/04/01 06:17:28;;;;;;;2.17;1.90;;;;;;;;;;5006051;28;58437;-76
2024/04/01 06:19:54;;;;;;;3.13;2.70;;;;;;;;;;5008981;28;59343;-77
2024/04/01 06:22:19;;;;;;;1.88;1.73;;;;;;;;;;5009010;28;58367;-76
2024/04/01 06:24:44;;;;;;;2.13;1.93;;;;;;;;;;5007260;28;58614;-77
2024/04/01 06:27:09;;;;;;;1.80;1.70;;;;;;;;;;5006622;28;58466;-77
2024/04/01 06:29:35;;;;;;;3.35;2.40;;;;;;;;;;5007653;28;58367;-76
2024/04/01 06:32:00;;;;;;;2.40;2.20;;;;;;;;;;5009582;28;59668;-76
2024/04/01 06:34:25;;;;;;;2.47;2.30;;;;;;;;;;5007208;28;58355;-76
2024/04/01 06:36:50;;;;;;;2.50;2.30;;;;;;;;;;5006971;28;58457;-77
2024/04/01 06:39:16;;;;;;;2.17;2.07;;;;;;;;;;5011344;28;59332;-77
2024/04/01 06:41:42;;;;;;;1.88;1.77;;;;;;;;;;5006207;28;58562;-77
2024/04/01 06:44:07;;;;;;;2.40;2.20;;;;;;;;;;5006297;28;58350;-77
2024/04/01 06:46:32;;;;;;;2.50;2.30;;;;;;;;;;5009107;28;58426;-77
2024/04/01 06:48:57;;;;;;;2.47;2.27;;;;;;;;;;5006833;28;58448;-76
2024/04/01 06:51:22;;;;;;;2.45;2.17;;;;;;;;;;5008684;28;58516;-76
2024/04/01 06:53:48;;;;;;;5.67;2.63;;;;;;;;;;5005155;28;58437;-77
2024/04/01 06:56:13;;;;;;;2.23;2.10;;;;;;;;;;5007953;28;58521;-76
2024/04/01 06:58:38;;;;;;;2.38;2.05;;;;;;;;;;5006614;28;60303;-77
2024/04/01 07:01:03;;;;;;;2.33;2.13;;;;;;;;;;5014117;27;59946;-77
2024/04/01 07:03:29;;;;;;;2.70;2.47;;;;;;;;;;5006791;28;58602;-76
2024/04/01 07:05:54;;;;;;;2.28;2.08;;;;;;;;;;5005315;28;59020;-76
2024/04/01 07:08:19;;;;;;;2.13;1.98;;;;;;;;;;5005448;28;58359;-76
2024/04/01 07:10:44;;;;;;;2.40;2.20;;;;;;;;;;5007548;28;59193;-78
2024/04/01 07:13:10;;;;;;;2.03;1.90;;;;;;;;;;5003489;28;58647;-76
2024/04/01 07:15:36;;;;;;;2.03;1.92;;;;;;;;;;5005372;28;58533;-76
2024/04/01 07:18:01;;;;;;;2.35;2.15;;;;;;;;;;5005427;28;59503;-76
2024/04/01 07:20:26;;;;;;;2.30;2.10;;;;;;;;;;5004907;28;59656;-76
2024/04/01 07:22:52;;;;;;;2.80;2.30;;;;;;;;;;5005117;28;58490;-77
2024/04/01 07:25:17;;;;;;;2.50;2.30;;;;;;;;;;5004814;28;59412;-76
2024/04/01 07:27:42;;;;;;;3.03;2.27;;;;;;;;;;5004596;28;58622;-77
2024/04/01 07:30:07;;;;;;;2.28;2.05;;;;;;;;;;5004198;28;59477;-76
2024/04/01 07:32:33;;;;;;;2.15;1.88;;;;;;;;;;5004864;28;58868;-77
2024/04/01 07:34:58;;;;;;;2.40;2.20;;;;;;;;;;5005318;28;58462;-77
2024/04/01 07:37:24;;;;;;;2.60;2.40;;;;;;;;;;5006242;28;59373;-76
2024/04/01 07:39:49;;;;;;;2.07;1.80;;;;;;;;;;4989011;28;58565;-77
2024/04/01 07:42:14;;;;;;;2.57;1.97;;;;;;;;;;4987348;28;58400;-76
2024/04/01 07:44:40;;;;;;;2.28;2.08;;;;;;;;;;4986342;28;59282;-76
2024/04/01 07:47:05;;;;;;;2.27;2.07;;;;;;;;;;4995601;28;59011;-76
2024/04/01 07:49:31;;;;;;;2.78;2.50;;;;;;;;;;5007505;28;58414;-76
2024/04/01 07:51:56;;;;;;;2.57;2.37;;;;;;;;;;5006112;28;58927;-76
2024/04/01 07:54:23;;;;;;;3.03;2.63;;;;;;;;;;5005127;28;58362;-76
2024/04/01 07:56:48;;;;;;;3.40;2.03;;;;;;;;;;5007455;28;59311;-77
2024/04/01 07:59:14;;;;;;;3.03;2.20;;;;;;;;;;5005740;28;58833;-76
2024/04/01 08:01:39;;;;;;;2.03;1.90;;;;;;;;;;5007111;28;58367;-76
2024/04/01 08:04:04;;;;;;;2.93;2.73;;;;;;;;;;5006270;28;59217;-76
2024/04/01 08:06:29;;;;;;;2.40;2.20;;;;;;;;;;5005617;28;59825;-76
2024/04/01 08:08:54;;;;;;;2.13;1.93;;;;;;;;;;5006440;28;58548;-77
2024/04/01 08:11:20;;;;;;;2.13;1.95;;;;;;;;;;5007656;28;58378;-76
2024/04/01 08:13:45;;;;;;;2.42;2.10;;;;;;;;;;5006317;28;58345;-76
2024/04/01 08:16:10;;;;;;;2.35;2.10;;;;;;;;;;5013199;28;59240;-76
2024/04/01 08:18:36;;;;;;;2.30;2.00;;;;;;;;;;5006515;28;58434;-75
2024/04/01 08:21:01;;;;;;;2.88;2.67;;;;;;;;;;5006436;28;58437;-76
2024/04/01 08:23:26;;;;;;;2.60;2.40;;;;;;;;;;5007298;28;58394;-75
2024/04/01 08:25:51;;;;;;;7.13;3.20;;;;;;;;;;5007065;28;59084;-76
2024/04/01 08:28:17;;;;;;;2.65;2.20;;;;;;;;;;5006003;28;58395;-76
2024/04/01 08:30:42;;;;;;;3.33;3.00;;;;;;;;;;4996643;28;59396;-76
2024/04/01 08:33:07;;;;;;;2.77;2.40;;;;;;;;;;4998368;28;60490;-76
2024/04/01 08:35:33;;;;;;;3.77;2.40;;;;;;;;;;5006764;28;59457;-76
2024/04/01 08:37:58;;;;;;;3.13;2.40;;;;;;;;;;5006519;28;58968;-76
2024/04/01 08:40:23;;;;;;;2.60;2.37;;;;;;;;;;5006079;28;58538;-76
2024/04/01 08:42:52;;;;;;;4.18;2.63;;;;;;;;;;5004230;28;59359;-76
2024/04/01 08:45:18;;;;;;;2.70;2.50;;;;;;;;;;5005229;28;58288;-76
2024/04/01 08:47:45;;;;;;;2.33;2.13;;;;;;;;;;5007329;28;58284;-77
2024/04/01 08:50:15;;;;;;;3.45;2.63;;;;;;;;;;5006391;28;58547;-76
2024/04/01 08:52:43;;;;;;;2.42;2.22;;;;;;;;;;5006252;28;58425;-77
2024/04/01 08:55:09;;;;;;;2.55;2.13;;;;;;;;;;5007181;28;59611;-77
2024/04/01 08:57:34;;;;;;;3.00;2.10;;;;;;;;;;5005754;28;59583;-74
2024/04/01 09:00:00;;;;;;;2.47;2.28;;;;;;;;;;5007137;28;58284;-76
2024/04/01 09:02:26;;;;;;;3.90;2.13;;;;;;;;;;5007107;28;59045;-76
2024/04/01 09:04:51;;;;;;;2.20;1.90;;;;;;;;;;5011815;28;58501;-77
2024/04/01 09:07:16;;;;;;;2.37;2.17;;;;;;;;;;5007328;28;58322;-77
2024/04/01 09:09:41;;;;;;;2.47;2.28;;;;;;;;;;5008208;28;59672;-77
2024/04/01 09:12:07;;;;;;;2.47;2.28;;;;;;;;;;5007730;28;59741;-77
2024/04/01 09:14:32;;;;;;;3.55;2.97;;;;;;;;;;5008943;28;58345;-74
2024/04/01 09:16:58;;;;;;;3.33;3.03;;;;;;;;;;5008926;28;59161;-74
2024/04/01 09:19:23;;;;;;;3.65;2.42;;;;;;;;;;5009730;28;58454;-77
2024/04/01 09:21:51;;;;;;;2.33;1.90;;;;;;;;;;5009192;28;58418;-77
2024/04/01 09:24:16;;;;;;;3.03;2.08;;;;;;;;;;5008418;28;59886;-76
2024/04/01 09:26:43;;;;;;;2.33;2.13;;;;;;;;;;5008875;28;58592;-75
2024/04/01 09:29:08;;;;;;;2.17;1.98;;;;;;;;;;5008621;28;59521;-76
2024/04/01 09:31:34;;;;;;;2.47;2.28;;;;;;;;;;5007247;28;58728;-74
2024/04/01 09:33:59;;;;;;;2.72;2.40;;;;;;;;;;5023852;28;58586;-74
2024/04/01 09:36:24;;;;;;;4.37;2.47;;;;;;;;;;5006417;28;58283;-76
2024/04/01 09:38:52;;;;;;;2.47;2.37;;;;;;;;;;5008063;28;58541;-76
2024/04/01 09:41:17;;;;;;;2.28;1.90;;;;;;;;;;5007595;28;59575;-76
2024/04/01 09:43:43;;;;;;;2.30;2.10;;;;;;;;;;5008189;28;59920;-76
2024/04/01 09:46:08;;;;;;;2.33;1.88;;;;;;;;;;5008517;28;58558;-76
2024/04/01 09:48:33;;;;;;;2.67;2.47;;;;;;;;;;5005467;28;59555;-76
2024/04/01 09:50:59;;;;;;;3.83;2.70;;;;;;;;;;5007854;28;59174;-76
2024/04/01 09:53:25;;;;;;;2.78;2.25;;;;;;;;;;5009519;28;58404;-75
2024/04/01 09:55:58;;;;;;;5.00;2.45;;;;;;;;;;5008547;28;61038;-76
2024/04/01 09:58:32;;;;;;;2.17;1.80;;;;;;;;;;5007551;28;58463;-75
2024/04/01 10:01:05;;;;;;;1.75;1.65;;;;;;;;;;5006404;28;59622;-75
2024/04/01 10:03:49;;;;;;;2.15;1.95;;;;;;;;;;5003696;28;58557;-75
2024/04/01 10:06:20;;;;;;;3.10;2.22;;;;;;;;;;5007928;28;58326;-75
2024/04/01 10:08:51;;;;;;;3.35;2.50;;;;;;;;;;5006454;28;59547;-76
2024/04/01 10:11:28;;;;;;;2.20;1.95;;;;;;;;;;5004614;28;59080;-76
2024/04/01 10:14:12;;;;;;;2.37;2.27;;;;;;;;;;5008946;28;58557;-75
2024/04/01 10:16:40;;;;;;;4.78;2.78;;;;;;;;;;5005992;28;62559;-76
2024/04/01 10:19:19;;;;;;;2.22;2.03;;;;;;;;;;5007026;28;58350;-75
2024/04/01 10:21:59;;;;;;;4.00;2.65;;;;;;;;;;5008313;28;58337;-76
2024/04/01 10:24:43;;;;;;;4.60;2.28;;;;;;;;;;5008270;28;58647;-74
2024/04/01 10:27:27;;;;;;;5.43;2.47;;;;;;;;;;5008614;28;58445;-74
2024/04/01 10:29:53;;;;;;;5.63;2.25;;;;;;;;;;5007419;28;60446;-74
2024/04/01 10:32:30;;;;;;;5.22;2.67;;;;;;;;;;5007709;28;58469;-75
2024/04/01 10:35:14;;;;;;;2.97;2.67;;;;;;;;;;5006120;28;58328;-77
2024/04/01 10:38:12;;;;;;;7.40;2.53;;;;;;;;;;5006839;28;63706;-74
2024/04/01 10:41:01;;;;;;;2.55;2.35;;;;;;;;;;5006541;28;64379;-77
2024/04/01 10:43:48;;;;;;;7.07;2.67;;;;;;;;;;5006746;28;58626;-77
2024/04/01 10:46:14;;;;;;;;;;;;;;;;;;5008929;28;58361;-78
2024/04/01 10:49:01;;;;;;;2.73;1.90;;;;;;;;;;5006735;28;58384;-78
2024/04/01 10:51:32;;;;;;;5.57;2.50;;;;;;;;;;5006415;28;59337;-77
2024/04/01 10:54:03;;;;;;;2.47;2.10;;;;;;;;;;5005738;28;58991;-77
2024/04/01 10:56:29;;;;;;;3.58;2.42;;;;;;;;;;5005901;28;58265;-79
2024/04/01 10:59:23;;;;;;;2.85;2.13;;;;;;;;;;5006620;28;59340;-79
2024/04/01 11:02:06;;;;;;;7.15;2.50;;;;;;;;;;4986312;28;63076;-79
2024/04/01 11:05:00;;;;;;;4.18;2.63;;;;;;;;;;5009187;28;58212;-76
2024/04/01 11:07:51;;;;;;;5.38;2.83;;;;;;;;;;4996663;28;59516;-77
2024/04/01 11:10:32;;;;;;;3.58;2.58;;;;;;;;;;5006204;28;58544;-78
2024/04/01 11:13:06;;;;;;;2.15;1.95;;;;;;;;;;5021308;28;59552;-78
2024/04/01 11:15:31;;;;;;;3.10;2.50;;;;;;;;;;5006844;28;58416;-77
2024/04/01 11:18:22;;;;;;;7.15;2.85;;;;;;;;;;5007083;28;58503;-78
2024/04/01 11:20:57;;;;;;;4.10;2.28;;;;;;;;;;5004707;28;88204;-77
2024/04/01 11:23:22;;;;;;;2.85;1.95;;;;;;;;;;5004870;28;58530;-75
2024/04/01 11:25:53;;;;;;;15.98;3.10;;;;;;;;;;5005983;28;58414;-76
2024/04/01 11:28:31;;;;;;;13.10;3.75;;;;;;;;;;5005098;28;59501;-77
2024/04/01 11:31:04;;;;;;;2.80;2.25;;;;;;;;;;5006616;28;58921;-78
2024/04/01 11:33:32;;;;;;;2.17;1.90;;;;;;;;;;5005350;28;60473;-74
2024/04/01 11:35:58;;;;;;;2.95;2.55;;;;;;;;;;5005873;28;58872;-76
2024/04/01 11:38:32;;;;;;;6.03;2.20;;;;;;;;;;5004734;28;58533;-75
2024/04/01 11:40:58;;;;;;;2.58;2.38;;;;;;;;;;5005987;28;59887;-75
2024/04/01 11:43:25;;;;;;;3.78;2.17;;;;;;;;;;5004552;28;59195;-77
2024/04/01 11:45:51;;;;;;;2.28;1.63;;;;;;;;;;5004716;28;58406;-79
2024/04/01 11:48:17;;;;;;;2.20;2.00;;;;;;;;;;5003604;28;60213;-76
2024/04/01 11:50:51;;;;;;;4.80;1.60;;;;;;;;;;5004844;28;59022;-76
2024/04/01 11:53:17;;;;;;;5.32;2.33;;;;;;;;;;5004074;28;58448;-77
2024/04/01 11:56:08;;;;;;;2.40;2.20;;;;;;;;;;5005792;28;58968;-76
2024/04/01 11:58:34;;;;;;;2.92;2.50;;;;;;;;;;5006748;28;58364;-76
2024/04/01 12:00:59;;;;;;;2.27;2.13;;;;;;;;;;5012632;28;59744;-78
2024/04/01 12:03:37;;;;;;;3.50;2.17;;;;;;;;;;5006957;28;58833;-77
2024/04/01 12:06:03;;;;;;;3.65;2.45;;;;;;;;;;4997343;28;58475;-77
2024/04/01 12:08:30;;;;;;;8.00;2.78;;;;;;;;;;4997318;28;59821;-77
2024/04/01 12:10:57;;;;;;;5.07;3.08;;;;;;;;;;5007295;28;58762;-77
2024/04/01 12:13:26;;;;;;;2.55;2.28;;;;;;;;;;5004746;28;59985;-78
2024/04/01 12:15:53;;;;;;;5.15;2.20;;;;;;;;;;5005493;28;59889;-79
2024/04/01 12:18:20;;;;;;;2.20;1.88;;;;;;;;;;5006286;28;58447;-79
2024/04/01 12:20:50;;;;;;;3.22;1.80;;;;;;;;;;5005817;28;59617;-80
2024/04/01 12:23:18;;;;;;;5.78;2.22;;;;;;;;;;5003288;28;59507;-77
2024/04/01 12:25:43;;;;;;;4.38;2.15;;;;;;;;;;5006571;28;58422;-79
2024/04/01 12:28:10;;;;;;;9.37;2.53;;;;;;;;;;5004829;28;59321;-79
2024/04/01 12:30:37;;;;;;;4.30;2.10;;;;;;;;;;5003574;28;59827;-80
2024/04/01 12:33:03;;;;;;;5.97;1.98;;;;;;;;;;4999425;28;58508;-79
2024/04/01 12:35:28;;;;;;;3.20;2.10;;;;;;;;;;4995021;28;59696;-79
2024/04/01 12:37:54;;;;;;;2.03;1.87;;;;;;;;;;5009605;28;58535;-79
2024/04/01 12:40:19;;;;;;;2.00;1.73;;;;;;;;;;5007331;28;59964;-79
2024/04/01 12:42:44;;;;;;;2.43;2.10;;;;;;;;;;5004808;28;59301;-80
2024/04/01 12:45:10;;;;;;;2.30;1.67;;;;;;;;;;5005862;28;58075;-79
2024/04/01 12:47:36;;;;;;;3.17;1.40;;;;;;;;;;5002365;28;59675;-78
2024/04/01 12:50:02;;;;;;;3.53;1.90;;;;;;;;;;5003678;28;58883;-78
2024/04/01 12:52:34;;;;;;;1.83;1.50;;;;;;;;;;5005913;28;58362;-78
2024/04/01 12:55:10;;;;;;;10.10;3.33;;;;;;;;;;5005681;28;59457;-80
2024/04/01 12:57:48;;;;;;;2.97;1.55;;;;;;;;;;4999102;28;59790;-77
2024/04/01 13:00:19;;;;;;;3.63;1.80;;;;;;;;;;4992482;28;58531;-80
2024/04/01 13:03:03;;;;;;;4.88;1.85;;;;;;;;;;4996257;28;59990;-79
2024/04/01 13:05:57;;;;;;;3.63;1.88;;;;;;;;;;5002401;28;58424;-77
2024/04/01 13:08:41;;;;;;;3.63;1.67;;;;;;;;;;4988533;28;59049;-77
2024/04/01 13:11:26;;;;;;;3.75;1.30;;;;;;;;;;5004881;28;59337;-78
2024/04/01 13:14:10;;;;;;;7.22;2.28;;;;;;;;;;4995418;28;58402;-78
2024/04/01 13:16:42;;;;;;;2.00;1.70;;;;;;;;;;5005067;28;63903;-77
2024/04/01 13:19:07;;;;;;;6.35;1.92;;;;;;;;;;5004966;28;58455;-78
2024/04/01 13:21:39;;;;;;;3.05;2.47;;;;;;;;;;5006631;28;58455;-77
2024/04/01 13:24:08;;;;;;;2.60;1.40;;;;;;;;;;5004525;28;59857;-78
2024/04/01 13:26:36;;;;;;;3.28;2.35;;;;;;;;;;5004832;28;58519;-79
2024/04/01 13:29:04;;;;;;;1.25;1.20;;;;;;;;;;5004429;28;60454;-77
2024/04/01 13:31:36;;;;;;;4.15;1.33;;;;;;;;;;5003139;28;64776;-79
2024/04/01 13:34:03;;;;;;;3.42;1.38;;;;;;;;;;5005188;28;58438;-79
2024/04/01 13:36:34;;;;;;;2.83;1.13;;;;;;;;;;5005612;28;58822;-80
2024/04/01 13:39:05;;;;;;;15.00;3.30;;;;;;;;;;5004665;28;59878;-79
2024/04/01 13:41:49;;;;;;;2.30;1.42;;;;;;;;;;5018888;28;58483;-79
2024/04/01 13:44:32;;;;;;;5.70;2.05;;;;;;;;;;5004312;28;58693;-83
2024/04/01 13:47:23;;;;;;;1.80;1.45;;;;;;;;;;5006847;28;58444;-79
2024/04/01 13:49:49;;;;;;;2.55;1.38;;;;;;;;;;5006760;28;63745;-78
2024/04/01 13:52:17;;;;;;;3.00;1.42;;;;;;;;;;5008518;28;58954;-79
2024/04/01 13:54:42;;;;;;;;;;;;;;;;;;5007989;28;58453;-79
2024/04/01 13:57:19;;;;;;;3.20;1.25;;;;;;;;;;5008177;28;59566;-79
2024/04/01 13:59:49;;;;;;;2.70;1.73;;;;;;;;;;5007103;28;58974;-79
2024/04/01 14:02:14;;;;;;;4.82;1.73;;;;;;;;;;5023790;28;58455;-79
2024/04/01 14:04:52;;;;;;;3.95;1.50;;;;;;;;;;5009734;28;59618;-79
2024/04/01 14:07:24;;;;;;;1.48;1.23;;;;;;;;;;5009297;28;58850;-79
2024/04/01 14:09:58;;;;;;;2.33;1.55;;;;;;;;;;5009735;28;58760;-79
2024/04/01 14:12:31;;;;;;;0.98;0.98;;;;;;;;;;5007339;28;58985;-78
2024/04/01 14:15:15;;;;;;;3.28;1.60;;;;;;;;;;5002607;28;58438;-79
2024/04/01 14:18:00;;;;;;;2.13;1.85;;;;;;;;;;4993110;28;60522;-79
2024/04/01 14:20:26;;;;;;;3.80;2.17;;;;;;;;;;4996775;28;59401;-79
2024/04/01 14:22:52;;;;;;;1.45;1.35;;;;;;;;;;5007440;28;58463;-79
2024/04/01 14:25:17;;;;;;;1.30;1.10;;;;;;;;;;5009090;28;59607;-79
2024/04/01 14:27:43;;;;;;;3.53;1.13;;;;;;;;;;5006403;28;59906;-79
2024/04/01 14:30:08;;;;;;;1.30;0.85;;;;;;;;;;5006801;28;58446;-76
2024/04/01 14:32:34;;;;;;;1.00;1.00;;;;;;;;;;5006543;28;60051;-77
2024/04/01 14:34:59;;;;;;;2.08;1.30;;;;;;;;;;5008613;28;58427;-78
2024/04/01 14:37:24;;;;;;;2.40;1.67;;;;;;;;;;5007450;28;58553;-77
2024/04/01 14:39:50;;;;;;;1.20;1.10;;;;;;;;;;4998382;28;58462;-79
2024/04/01 14:42:15;;;;;;;1.90;1.27;;;;;;;;;;5011510;28;58444;-79
2024/04/01 14:44:41;;;;;;;1.47;1.30;;;;;;;;;;4998413;28;58848;-79
2024/04/01 14:47:06;;;;;;;1.20;1.10;;;;;;;;;;5007238;28;59069;-80